sensor_id;sensor_type;location;lat;lon;timestamp;P1;durP1;ratioP1;P2;durP2;ratioP2
71941;SDS011;59997;53.300;-6.260;2024-03-08T00:00:15;45.67;;;17.42;;
71941;SDS011;59997;53.300;-6.260;2024-03-08T00:02:43;49.97;;;17.55;;
71941;SDS011;59997;53.300;-6.260;2024-03-08T00:05:10;41.28;;;15.95;;
71941;SDS011;59997;53.300;-6.260;2024-03-08T00:07:37;43.10;;;16.13;;
71941;SDS011;59997;53.300;-6.260;2024-03-08T00:10:04;43.33;;;16.17;;
71941;SDS011;59997;53.300;-6.260;2024-03-08T00:12:37;44.40;;;16.23;;
71941;SDS011;59997;53.300;-6.260;2024-03-08T00:15:03;32.67;;;13.35;;
71941;SDS011;59997;53.300;-6.260;2024-03-08T00:17:29;46.78;;;16.70;;
71941;SDS011;59997;53.300;-6.260;2024-03-08T00:19:54;39.17;;;16.37;;
71941;SDS011;59997;53.300;-6.260;2024-03-08T00:22:20;42.73;;;16.53;;
71941;SDS011;59997;53.300;-6.260;2024-03-08T00:24:47;43.00;;;16.02;;
71941;SDS011;59997;53.300;-6.260;2024-03-08T00:27:14;40.58;;;15.80;;
71941;SDS011;59997;53.300;-6.260;2024-03-08T00:29:40;42.53;;;15.70;;
71941;SDS011;59997;53.300;-6.260;2024-03-08T00:32:06;44.33;;;15.93;;
71941;SDS011;59997;53.300;-6.260;2024-03-08T00:34:34;38.33;;;15.77;;
71941;SDS011;59997;53.300;-6.260;2024-03-08T00:37:01;45.95;;;17.38;;
71941;SDS011;59997;53.300;-6.260;2024-03-08T00:39:28;36.05;;;14.35;;
71941;SDS011;59997;53.300;-6.260;2024-03-08T00:41:53;41.85;;;15.98;;
71941;SDS011;59997;53.300;-6.260;2024-03-08T00:44:19;46.63;;;16.53;;
71941;SDS011;59997;53.300;-6.260;2024-03-08T00:46:44;42.17;;;16.87;;
71941;SDS011;59997;53.300;-6.260;2024-03-08T00:49:10;33.30;;;12.50;;
71941;SDS011;59997;53.300;-6.260;2024-03-08T00:51:37;47.77;;;18.10;;
71941;SDS011;59997;53.300;-6.260;2024-03-08T00:54:03;48.63;;;17.85;;
71941;SDS011;59997;53.300;-6.260;2024-03-08T00:56:28;42.40;;;16.73;;
71941;SDS011;59997;53.300;-6.260;2024-03-08T00:58:54;45.53;;;16.47;;
71941;SDS011;59997;53.300;-6.260;2024-03-08T01:01:19;43.63;;;16.05;;
71941;SDS011;59997;53.300;-6.260;2024-03-08T01:03:45;46.37;;;18.03;;
71941;SDS011;59997;53.300;-6.260;2024-03-08T01:06:11;52.35;;;17.50;;
71941;SDS011;59997;53.300;-6.260;2024-03-08T01:08:37;45.97;;;17.43;;
71941;SDS011;59997;53.300;-6.260;2024-03-08T01:11:04;45.38;;;17.95;;
71941;SDS011;59997;53.300;-6.260;2024-03-08T01:13:30;49.78;;;18.45;;
71941;SDS011;59997;53.300;-6.260;2024-03-08T01:15:55;49.47;;;17.93;;
71941;SDS011;59997;53.300;-6.260;2024-03-08T01:18:21;46.05;;;17.88;;
71941;SDS011;59997;53.300;-6.260;2024-03-08T01:20:47;55.90;;;18.77;;
71941;SDS011;59997;53.300;-6.260;2024-03-08T01:23:12;50.42;;;18.38;;
71941;SDS011;59997;53.300;-6.260;2024-03-08T01:25:38;44.03;;;15.93;;
71941;SDS011;59997;53.300;-6.260;2024-03-08T01:28:04;47.47;;;17.15;;
71941;SDS011;59997;53.300;-6.260;2024-03-08T01:30:30;51.73;;;17.07;;
71941;SDS011;59997;53.300;-6.260;2024-03-08T01:32:58;48.08;;;15.65;;
71941;SDS011;59997;53.300;-6.260;2024-03-08T01:35:23;46.95;;;17.70;;
71941;SDS011;59997;53.300;-6.260;2024-03-08T01:37:49;40.43;;;14.30;;
71941;SDS011;59997;53.300;-6.260;2024-03-08T01:40:15;42.08;;;16.08;;
71941;SDS011;59997;53.300;-6.260;2024-03-08T01:42:41;46.83;;;17.20;;
71941;SDS011;59997;53.300;-6.260;2024-03-08T01:45:07;38.67;;;14.40;;
71941;SDS011;59997;53.300;-6.260;2024-03-08T01:47:34;46.60;;;16.48;;
71941;SDS011;59997;53.300;-6.260;2024-03-08T01:50:00;48.17;;;14.73;;
71941;SDS011;59997;53.300;-6.260;2024-03-08T01:52:30;42.17;;;16.08;;
71941;SDS011;59997;53.300;-6.260;2024-03-08T01:54:57;32.30;;;12.25;;
71941;SDS011;59997;53.300;-6.260;2024-03-08T01:57:32;43.20;;;16.88;;
71941;SDS011;59997;53.300;-6.260;2024-03-08T01:59:59;48.05;;;15.55;;
71941;SDS011;59997;53.300;-6.260;2024-03-08T02:02:28;39.72;;;14.55;;
71941;SDS011;59997;53.300;-6.260;2024-03-08T02:04:57;41.25;;;14.32;;
71941;SDS011;59997;53.300;-6.260;2024-03-08T02:07:22;40.73;;;15.70;;
71941;SDS011;59997;53.300;-6.260;2024-03-08T02:09:48;46.60;;;15.77;;
71941;SDS011;59997;53.300;-6.260;2024-03-08T02:12:13;37.77;;;15.27;;
71941;SDS011;59997;53.300;-6.260;2024-03-08T02:14:39;42.05;;;13.95;;
71941;SDS011;59997;53.300;-6.260;2024-03-08T02:17:05;37.63;;;13.95;;
71941;SDS011;59997;53.300;-6.260;2024-03-08T02:19:30;49.55;;;16.20;;
71941;SDS011;59997;53.300;-6.260;2024-03-08T02:21:57;43.40;;;16.05;;
71941;SDS011;59997;53.300;-6.260;2024-03-08T02:24:22;34.50;;;13.73;;
71941;SDS011;59997;53.300;-6.260;2024-03-08T02:26:49;45.33;;;14.38;;
71941;SDS011;59997;53.300;-6.260;2024-03-08T02:29:14;44.17;;;15.33;;
71941;SDS011;59997;53.300;-6.260;2024-03-08T02:31:40;38.08;;;14.25;;
71941;SDS011;59997;53.300;-6.260;2024-03-08T02:34:06;35.73;;;13.40;;
71941;SDS011;59997;53.300;-6.260;2024-03-08T02:36:31;38.92;;;14.35;;
71941;SDS011;59997;53.300;-6.260;2024-03-08T02:39:01;38.35;;;13.45;;
71941;SDS011;59997;53.300;-6.260;2024-03-08T02:41:27;40.50;;;14.30;;
71941;SDS011;59997;53.300;-6.260;2024-03-08T02:43:53;37.23;;;14.13;;
71941;SDS011;59997;53.300;-6.260;2024-03-08T02:46:20;33.63;;;13.60;;
71941;SDS011;59997;53.300;-6.260;2024-03-08T02:48:45;40.10;;;14.98;;
71941;SDS011;59997;53.300;-6.260;2024-03-08T02:51:12;39.17;;;13.90;;
71941;SDS011;59997;53.300;-6.260;2024-03-08T02:53:38;38.45;;;14.90;;
71941;SDS011;59997;53.300;-6.260;2024-03-08T02:56:04;34.95;;;13.32;;
71941;SDS011;59997;53.300;-6.260;2024-03-08T02:58:33;40.75;;;14.02;;
71941;SDS011;59997;53.300;-6.260;2024-03-08T03:00:59;36.20;;;14.00;;
71941;SDS011;59997;53.300;-6.260;2024-03-08T03:03:24;36.50;;;13.50;;
71941;SDS011;59997;53.300;-6.260;2024-03-08T03:05:51;37.38;;;13.13;;
71941;SDS011;59997;53.300;-6.260;2024-03-08T03:08:20;39.47;;;14.40;;
71941;SDS011;59997;53.300;-6.260;2024-03-08T03:10:46;44.97;;;15.57;;
71941;SDS011;59997;53.300;-6.260;2024-03-08T03:13:11;41.13;;;14.07;;
71941;SDS011;59997;53.300;-6.260;2024-03-08T03:15:37;34.00;;;13.77;;
71941;SDS011;59997;53.300;-6.260;2024-03-08T03:18:03;41.47;;;13.87;;
71941;SDS011;59997;53.300;-6.260;2024-03-08T03:20:29;35.50;;;14.07;;
71941;SDS011;59997;53.300;-6.260;2024-03-08T03:23:05;39.83;;;13.38;;
71941;SDS011;59997;53.300;-6.260;2024-03-08T03:25:33;35.40;;;13.93;;
71941;SDS011;59997;53.300;-6.260;2024-03-08T03:28:00;36.97;;;14.13;;
71941;SDS011;59997;53.300;-6.260;2024-03-08T03:30:26;34.25;;;13.38;;
71941;SDS011;59997;53.300;-6.260;2024-03-08T03:32:52;35.38;;;13.23;;
71941;SDS011;59997;53.300;-6.260;2024-03-08T03:35:19;40.33;;;13.43;;
71941;SDS011;59997;53.300;-6.260;2024-03-08T03:37:46;33.88;;;13.13;;
71941;SDS011;59997;53.300;-6.260;2024-03-08T03:40:30;36.60;;;12.73;;
71941;SDS011;59997;53.300;-6.260;2024-03-08T03:42:57;44.88;;;14.23;;
71941;SDS011;59997;53.300;-6.260;2024-03-08T03:45:23;36.20;;;14.23;;
71941;SDS011;59997;53.300;-6.260;2024-03-08T03:47:48;34.53;;;13.35;;
71941;SDS011;59997;53.300;-6.260;2024-03-08T03:50:14;37.63;;;14.02;;
71941;SDS011;59997;53.300;-6.260;2024-03-08T03:52:40;29.87;;;12.30;;
71941;SDS011;59997;53.300;-6.260;2024-03-08T03:55:07;37.45;;;13.00;;
71941;SDS011;59997;53.300;-6.260;2024-03-08T03:57:33;36.53;;;13.07;;
71941;SDS011;59997;53.300;-6.260;2024-03-08T03:59:59;33.07;;;13.00;;
71941;SDS011;59997;53.300;-6.260;2024-03-08T04:02:24;35.90;;;12.80;;
71941;SDS011;59997;53.300;-6.260;2024-03-08T04:04:51;34.38;;;15.10;;
71941;SDS011;59997;53.300;-6.260;2024-03-08T04:07:20;33.22;;;11.95;;
71941;SDS011;59997;53.300;-6.260;2024-03-08T04:09:46;31.35;;;12.38;;
71941;SDS011;59997;53.300;-6.260;2024-03-08T04:12:12;36.07;;;12.63;;
71941;SDS011;59997;53.300;-6.260;2024-03-08T04:14:40;26.40;;;11.32;;
71941;SDS011;59997;53.300;-6.260;2024-03-08T04:17:06;33.92;;;12.63;;
71941;SDS011;59997;53.300;-6.260;2024-03-08T04:19:33;32.30;;;12.73;;
71941;SDS011;59997;53.300;-6.260;2024-03-08T04:22:00;28.27;;;11.85;;
71941;SDS011;59997;53.300;-6.260;2024-03-08T04:24:26;35.37;;;12.40;;
71941;SDS011;59997;53.300;-6.260;2024-03-08T04:26:51;29.83;;;11.55;;
71941;SDS011;59997;53.300;-6.260;2024-03-08T04:29:18;31.70;;;11.93;;
71941;SDS011;59997;53.300;-6.260;2024-03-08T04:31:43;32.37;;;12.33;;
71941;SDS011;59997;53.300;-6.260;2024-03-08T04:34:09;29.92;;;11.77;;
71941;SDS011;59997;53.300;-6.260;2024-03-08T04:36:35;34.10;;;12.00;;
71941;SDS011;59997;53.300;-6.260;2024-03-08T04:39:01;32.90;;;11.97;;
71941;SDS011;59997;53.300;-6.260;2024-03-08T04:41:27;28.15;;;10.77;;
71941;SDS011;59997;53.300;-6.260;2024-03-08T04:43:52;30.07;;;11.57;;
71941;SDS011;59997;53.300;-6.260;2024-03-08T04:46:18;31.77;;;10.63;;
71941;SDS011;59997;53.300;-6.260;2024-03-08T04:48:44;27.70;;;11.02;;
71941;SDS011;59997;53.300;-6.260;2024-03-08T04:51:09;27.27;;;10.90;;
71941;SDS011;59997;53.300;-6.260;2024-03-08T04:53:35;29.05;;;11.10;;
71941;SDS011;59997;53.300;-6.260;2024-03-08T04:56:01;28.70;;;11.83;;
71941;SDS011;59997;53.300;-6.260;2024-03-08T04:58:31;29.10;;;11.43;;
71941;SDS011;59997;53.300;-6.260;2024-03-08T05:01:00;29.95;;;10.77;;
71941;SDS011;59997;53.300;-6.260;2024-03-08T05:03:26;27.70;;;10.20;;
71941;SDS011;59997;53.300;-6.260;2024-03-08T05:05:52;28.37;;;10.67;;
71941;SDS011;59997;53.300;-6.260;2024-03-08T05:08:18;31.30;;;11.25;;
71941;SDS011;59997;53.300;-6.260;2024-03-08T05:10:44;30.52;;;10.43;;
71941;SDS011;59997;53.300;-6.260;2024-03-08T05:13:10;28.57;;;10.80;;
71941;SDS011;59997;53.300;-6.260;2024-03-08T05:15:35;30.13;;;11.00;;
71941;SDS011;59997;53.300;-6.260;2024-03-08T05:18:01;27.35;;;10.48;;
71941;SDS011;59997;53.300;-6.260;2024-03-08T05:20:27;28.75;;;11.60;;
71941;SDS011;59997;53.300;-6.260;2024-03-08T05:22:53;31.20;;;10.83;;
71941;SDS011;59997;53.300;-6.260;2024-03-08T05:25:18;31.55;;;11.65;;
71941;SDS011;59997;53.300;-6.260;2024-03-08T05:27:44;29.45;;;10.73;;
71941;SDS011;59997;53.300;-6.260;2024-03-08T05:30:09;29.07;;;10.93;;
71941;SDS011;59997;53.300;-6.260;2024-03-08T05:32:42;26.92;;;11.13;;
71941;SDS011;59997;53.300;-6.260;2024-03-08T05:35:11;30.70;;;11.98;;
71941;SDS011;59997;53.300;-6.260;2024-03-08T05:37:37;27.17;;;10.50;;
71941;SDS011;59997;53.300;-6.260;2024-03-08T05:40:04;27.45;;;10.40;;
71941;SDS011;59997;53.300;-6.260;2024-03-08T05:42:34;28.27;;;11.32;;
71941;SDS011;59997;53.300;-6.260;2024-03-08T05:45:00;21.65;;;8.20;;
71941;SDS011;59997;53.300;-6.260;2024-03-08T05:47:25;27.50;;;10.23;;
71941;SDS011;59997;53.300;-6.260;2024-03-08T05:49:51;28.33;;;10.27;;
71941;SDS011;59997;53.300;-6.260;2024-03-08T05:52:18;23.15;;;9.20;;
71941;SDS011;59997;53.300;-6.260;2024-03-08T05:54:44;25.55;;;9.93;;
71941;SDS011;59997;53.300;-6.260;2024-03-08T05:57:10;25.95;;;9.63;;
71941;SDS011;59997;53.300;-6.260;2024-03-08T05:59:36;26.10;;;9.77;;
71941;SDS011;59997;53.300;-6.260;2024-03-08T06:02:02;25.77;;;9.93;;
71941;SDS011;59997;53.300;-6.260;2024-03-08T06:04:28;24.55;;;10.05;;
71941;SDS011;59997;53.300;-6.260;2024-03-08T06:06:54;28.67;;;9.38;;
71941;SDS011;59997;53.300;-6.260;2024-03-08T06:09:22;25.38;;;9.35;;
71941;SDS011;59997;53.300;-6.260;2024-03-08T06:11:48;23.83;;;8.93;;
71941;SDS011;59997;53.300;-6.260;2024-03-08T06:14:14;30.37;;;9.67;;
71941;SDS011;59997;53.300;-6.260;2024-03-08T06:16:43;26.08;;;9.80;;
71941;SDS011;59997;53.300;-6.260;2024-03-08T06:19:12;23.67;;;9.38;;
71941;SDS011;59997;53.300;-6.260;2024-03-08T06:21:39;29.48;;;10.18;;
71941;SDS011;59997;53.300;-6.260;2024-03-08T06:24:04;26.53;;;10.47;;
71941;SDS011;59997;53.300;-6.260;2024-03-08T06:26:30;28.13;;;10.80;;
71941;SDS011;59997;53.300;-6.260;2024-03-08T06:28:56;24.97;;;9.57;;
71941;SDS011;59997;53.300;-6.260;2024-03-08T06:31:22;29.02;;;10.07;;
71941;SDS011;59997;53.300;-6.260;2024-03-08T06:33:47;30.33;;;9.98;;
71941;SDS011;59997;53.300;-6.260;2024-03-08T06:36:17;26.15;;;10.13;;
71941;SDS011;59997;53.300;-6.260;2024-03-08T06:38:49;26.92;;;10.00;;
71941;SDS011;59997;53.300;-6.260;2024-03-08T06:41:15;30.52;;;10.27;;
71941;SDS011;59997;53.300;-6.260;2024-03-08T06:43:42;26.10;;;9.67;;
71941;SDS011;59997;53.300;-6.260;2024-03-08T06:46:11;26.60;;;9.98;;
71941;SDS011;59997;53.300;-6.260;2024-03-08T06:48:40;28.88;;;10.43;;
71941;SDS011;59997;53.300;-6.260;2024-03-08T06:51:06;31.52;;;9.90;;
71941;SDS011;59997;53.300;-6.260;2024-03-08T06:53:32;26.40;;;10.35;;
71941;SDS011;59997;53.300;-6.260;2024-03-08T06:56:00;27.97;;;10.57;;
71941;SDS011;59997;53.300;-6.260;2024-03-08T06:58:25;26.88;;;10.30;;
71941;SDS011;59997;53.300;-6.260;2024-03-08T07:00:52;27.30;;;10.30;;
71941;SDS011;59997;53.300;-6.260;2024-03-08T07:03:18;24.58;;;8.63;;
71941;SDS011;59997;53.300;-6.260;2024-03-08T07:05:44;27.48;;;10.38;;
71941;SDS011;59997;53.300;-6.260;2024-03-08T07:08:09;26.15;;;9.95;;
71941;SDS011;59997;53.300;-6.260;2024-03-08T07:10:35;26.58;;;9.88;;
71941;SDS011;59997;53.300;-6.260;2024-03-08T07:13:02;27.00;;;9.38;;
71941;SDS011;59997;53.300;-6.260;2024-03-08T07:15:28;27.73;;;10.53;;
71941;SDS011;59997;53.300;-6.260;2024-03-08T07:17:54;24.08;;;10.30;;
71941;SDS011;59997;53.300;-6.260;2024-03-08T07:20:19;26.92;;;10.20;;
71941;SDS011;59997;53.300;-6.260;2024-03-08T07:22:45;29.33;;;10.20;;
71941;SDS011;59997;53.300;-6.260;2024-03-08T07:25:18;29.17;;;10.13;;
71941;SDS011;59997;53.300;-6.260;2024-03-08T07:27:43;26.25;;;10.30;;
71941;SDS011;59997;53.300;-6.260;2024-03-08T07:30:09;24.73;;;10.73;;
71941;SDS011;59997;53.300;-6.260;2024-03-08T07:32:35;27.83;;;10.50;;
71941;SDS011;59997;53.300;-6.260;2024-03-08T07:35:01;30.13;;;10.57;;
71941;SDS011;59997;53.300;-6.260;2024-03-08T07:37:27;24.38;;;9.70;;
71941;SDS011;59997;53.300;-6.260;2024-03-08T07:39:52;28.92;;;10.60;;
71941;SDS011;59997;53.300;-6.260;2024-03-08T07:42:18;30.92;;;11.48;;
71941;SDS011;59997;53.300;-6.260;2024-03-08T07:44:43;32.03;;;11.60;;
71941;SDS011;59997;53.300;-6.260;2024-03-08T07:47:11;29.23;;;11.02;;
71941;SDS011;59997;53.300;-6.260;2024-03-08T07:49:37;30.30;;;10.00;;
71941;SDS011;59997;53.300;-6.260;2024-03-08T07:52:03;27.17;;;9.57;;
71941;SDS011;59997;53.300;-6.260;2024-03-08T07:54:29;29.65;;;10.38;;
71941;SDS011;59997;53.300;-6.260;2024-03-08T07:56:55;27.75;;;10.25;;
71941;SDS011;59997;53.300;-6.260;2024-03-08T07:59:21;24.43;;;10.27;;
71941;SDS011;59997;53.300;-6.260;2024-03-08T08:01:46;26.53;;;9.67;;
71941;SDS011;59997;53.300;-6.260;2024-03-08T08:04:12;25.15;;;9.70;;
71941;SDS011;59997;53.300;-6.260;2024-03-08T08:06:39;27.03;;;10.03;;
71941;SDS011;59997;53.300;-6.260;2024-03-08T08:09:08;28.80;;;10.63;;
71941;SDS011;59997;53.300;-6.260;2024-03-08T08:11:40;31.20;;;10.63;;
71941;SDS011;59997;53.300;-6.260;2024-03-08T08:14:09;25.52;;;9.20;;
71941;SDS011;59997;53.300;-6.260;2024-03-08T08:16:35;26.80;;;9.53;;
71941;SDS011;59997;53.300;-6.260;2024-03-08T08:19:07;23.75;;;9.77;;
71941;SDS011;59997;53.300;-6.260;2024-03-08T08:21:34;25.47;;;9.33;;
71941;SDS011;59997;53.300;-6.260;2024-03-08T08:24:02;29.77;;;9.45;;
71941;SDS011;59997;53.300;-6.260;2024-03-08T08:26:28;21.77;;;9.30;;
71941;SDS011;59997;53.300;-6.260;2024-03-08T08:28:54;23.43;;;8.90;;
71941;SDS011;59997;53.300;-6.260;2024-03-08T08:31:19;22.05;;;9.25;;
71941;SDS011;59997;53.300;-6.260;2024-03-08T08:33:45;27.53;;;9.87;;
71941;SDS011;59997;53.300;-6.260;2024-03-08T08:36:10;25.20;;;9.83;;
71941;SDS011;59997;53.300;-6.260;2024-03-08T08:38:36;24.30;;;9.40;;
71941;SDS011;59997;53.300;-6.260;2024-03-08T08:41:01;25.57;;;10.37;;
71941;SDS011;59997;53.300;-6.260;2024-03-08T08:43:27;22.63;;;9.40;;
71941;SDS011;59997;53.300;-6.260;2024-03-08T08:45:53;24.53;;;9.13;;
71941;SDS011;59997;53.300;-6.260;2024-03-08T08:48:20;25.80;;;9.93;;
71941;SDS011;59997;53.300;-6.260;2024-03-08T08:50:45;27.33;;;9.67;;
71941;SDS011;59997;53.300;-6.260;2024-03-08T08:53:12;25.42;;;10.80;;
71941;SDS011;59997;53.300;-6.260;2024-03-08T08:55:39;26.50;;;9.70;;
71941;SDS011;59997;53.300;-6.260;2024-03-08T08:58:05;26.52;;;10.00;;
71941;SDS011;59997;53.300;-6.260;2024-03-08T09:00:32;23.42;;;9.57;;
71941;SDS011;59997;53.300;-6.260;2024-03-08T09:02:59;25.70;;;10.63;;
71941;SDS011;59997;53.300;-6.260;2024-03-08T09:05:25;26.60;;;11.07;;
71941;SDS011;59997;53.300;-6.260;2024-03-08T09:07:51;30.10;;;11.77;;
71941;SDS011;59997;53.300;-6.260;2024-03-08T09:10:18;28.33;;;12.20;;
71941;SDS011;59997;53.300;-6.260;2024-03-08T09:12:44;29.08;;;10.73;;
71941;SDS011;59997;53.300;-6.260;2024-03-08T09:15:09;28.98;;;11.18;;
71941;SDS011;59997;53.300;-6.260;2024-03-08T09:17:37;29.13;;;11.23;;
71941;SDS011;59997;53.300;-6.260;2024-03-08T09:20:06;31.00;;;11.57;;
71941;SDS011;59997;53.300;-6.260;2024-03-08T09:22:34;31.77;;;12.35;;
71941;SDS011;59997;53.300;-6.260;2024-03-08T09:25:00;27.83;;;11.45;;
71941;SDS011;59997;53.300;-6.260;2024-03-08T09:27:26;27.10;;;11.00;;
71941;SDS011;59997;53.300;-6.260;2024-03-08T09:29:52;27.00;;;11.57;;
71941;SDS011;59997;53.300;-6.260;2024-03-08T09:32:17;28.00;;;11.80;;
71941;SDS011;59997;53.300;-6.260;2024-03-08T09:34:43;27.10;;;11.47;;
71941;SDS011;59997;53.300;-6.260;2024-03-08T09:37:08;24.85;;;11.05;;
71941;SDS011;59997;53.300;-6.260;2024-03-08T09:39:34;29.00;;;11.43;;
71941;SDS011;59997;53.300;-6.260;2024-03-08T09:42:00;27.58;;;12.23;;
71941;SDS011;59997;53.300;-6.260;2024-03-08T09:44:26;26.40;;;11.43;;
71941;SDS011;59997;53.300;-6.260;2024-03-08T09:46:54;27.77;;;12.17;;
71941;SDS011;59997;53.300;-6.260;2024-03-08T09:49:20;23.15;;;9.75;;
71941;SDS011;59997;53.300;-6.260;2024-03-08T09:51:45;31.47;;;11.83;;
71941;SDS011;59997;53.300;-6.260;2024-03-08T09:54:11;30.63;;;12.13;;
71941;SDS011;59997;53.300;-6.260;2024-03-08T09:56:38;29.52;;;12.65;;
71941;SDS011;59997;53.300;-6.260;2024-03-08T09:59:09;28.30;;;12.13;;
71941;SDS011;59997;53.300;-6.260;2024-03-08T10:02:12;29.80;;;12.35;;
71941;SDS011;59997;53.300;-6.260;2024-03-08T10:04:40;32.45;;;13.00;;
71941;SDS011;59997;53.300;-6.260;2024-03-08T10:07:11;28.45;;;11.75;;
71941;SDS011;59997;53.300;-6.260;2024-03-08T10:09:37;30.95;;;12.30;;
71941;SDS011;59997;53.300;-6.260;2024-03-08T10:12:04;31.77;;;13.40;;
71941;SDS011;59997;53.300;-6.260;2024-03-08T10:14:30;34.40;;;13.85;;
71941;SDS011;59997;53.300;-6.260;2024-03-08T10:16:57;31.30;;;12.95;;
71941;SDS011;59997;53.300;-6.260;2024-03-08T10:19:26;28.58;;;11.68;;
71941;SDS011;59997;53.300;-6.260;2024-03-08T10:21:54;28.05;;;12.40;;
71941;SDS011;59997;53.300;-6.260;2024-03-08T10:24:22;29.67;;;11.43;;
71941;SDS011;59997;53.300;-6.260;2024-03-08T10:26:51;26.88;;;11.02;;
71941;SDS011;59997;53.300;-6.260;2024-03-08T10:29:32;29.67;;;11.80;;
71941;SDS011;59997;53.300;-6.260;2024-03-08T10:31:58;27.77;;;10.52;;
71941;SDS011;59997;53.300;-6.260;2024-03-08T10:34:24;28.23;;;11.98;;
71941;SDS011;59997;53.300;-6.260;2024-03-08T10:36:50;31.73;;;11.37;;
71941;SDS011;59997;53.300;-6.260;2024-03-08T10:39:23;30.30;;;12.20;;
71941;SDS011;59997;53.300;-6.260;2024-03-08T10:41:55;23.25;;;10.25;;
71941;SDS011;59997;53.300;-6.260;2024-03-08T10:44:32;29.88;;;11.63;;
71941;SDS011;59997;53.300;-6.260;2024-03-08T10:47:40;29.40;;;12.02;;
71941;SDS011;59997;53.300;-6.260;2024-03-08T10:52:59;31.00;;;13.32;;
71941;SDS011;59997;53.300;-6.260;2024-03-08T10:55:26;32.92;;;13.38;;
71941;SDS011;59997;53.300;-6.260;2024-03-08T10:57:53;34.58;;;13.00;;
71941;SDS011;59997;53.300;-6.260;2024-03-08T11:00:19;33.03;;;14.27;;
71941;SDS011;59997;53.300;-6.260;2024-03-08T11:02:52;33.28;;;14.63;;
71941;SDS011;59997;53.300;-6.260;2024-03-08T11:08:19;33.35;;;14.25;;
71941;SDS011;59997;53.300;-6.260;2024-03-08T11:10:52;35.50;;;13.70;;
71941;SDS011;59997;53.300;-6.260;2024-03-08T11:13:37;33.55;;;12.95;;
71941;SDS011;59997;53.300;-6.260;2024-03-08T11:16:11;35.00;;;14.50;;
71941;SDS011;59997;53.300;-6.260;2024-03-08T11:19:26;37.65;;;14.60;;
71941;SDS011;59997;53.300;-6.260;2024-03-08T11:21:44;34.35;;;14.35;;
71941;SDS011;59997;53.300;-6.260;2024-03-08T11:24:13;35.57;;;14.13;;
71941;SDS011;59997;53.300;-6.260;2024-03-08T11:26:39;37.33;;;14.75;;
71941;SDS011;59997;53.300;-6.260;2024-03-08T11:32:12;37.87;;;16.00;;
71941;SDS011;59997;53.300;-6.260;2024-03-08T11:34:41;34.03;;;13.60;;
71941;SDS011;59997;53.300;-6.260;2024-03-08T11:39:40;36.63;;;13.70;;
71941;SDS011;59997;53.300;-6.260;2024-03-08T11:42:12;31.92;;;13.30;;
71941;SDS011;59997;53.300;-6.260;2024-03-08T11:44:37;35.03;;;14.73;;
71941;SDS011;59997;53.300;-6.260;2024-03-08T11:47:08;36.73;;;14.93;;
71941;SDS011;59997;53.300;-6.260;2024-03-08T11:49:35;34.05;;;14.32;;
71941;SDS011;59997;53.300;-6.260;2024-03-08T11:52:01;33.67;;;13.83;;
71941;SDS011;59997;53.300;-6.260;2024-03-08T11:54:28;36.25;;;14.18;;
71941;SDS011;59997;53.300;-6.260;2024-03-08T11:56:55;34.03;;;13.60;;
71941;SDS011;59997;53.300;-6.260;2024-03-08T11:59:27;34.03;;;13.23;;
71941;SDS011;59997;53.300;-6.260;2024-03-08T12:01:58;36.80;;;14.65;;
71941;SDS011;59997;53.300;-6.260;2024-03-08T12:04:27;28.07;;;11.63;;
71941;SDS011;59997;53.300;-6.260;2024-03-08T12:06:52;35.67;;;13.90;;
71941;SDS011;59997;53.300;-6.260;2024-03-08T12:09:18;39.30;;;15.00;;
71941;SDS011;59997;53.300;-6.260;2024-03-08T12:11:47;35.20;;;15.40;;
71941;SDS011;59997;53.300;-6.260;2024-03-08T12:14:14;38.03;;;13.90;;
71941;SDS011;59997;53.300;-6.260;2024-03-08T12:16:40;37.50;;;14.63;;
71941;SDS011;59997;53.300;-6.260;2024-03-08T12:19:07;30.48;;;13.07;;
71941;SDS011;59997;53.300;-6.260;2024-03-08T12:21:34;41.25;;;14.57;;
71941;SDS011;59997;53.300;-6.260;2024-03-08T12:24:04;33.08;;;12.68;;
71941;SDS011;59997;53.300;-6.260;2024-03-08T12:26:34;26.10;;;11.13;;
71941;SDS011;59997;53.300;-6.260;2024-03-08T12:31:47;29.10;;;12.23;;
71941;SDS011;59997;53.300;-6.260;2024-03-08T12:34:16;26.10;;;11.30;;
71941;SDS011;59997;53.300;-6.260;2024-03-08T12:36:48;36.50;;;12.07;;
71941;SDS011;59997;53.300;-6.260;2024-03-08T12:39:15;28.98;;;12.43;;
71941;SDS011;59997;53.300;-6.260;2024-03-08T12:41:42;37.35;;;13.27;;
71941;SDS011;59997;53.300;-6.260;2024-03-08T12:44:08;31.93;;;12.40;;
71941;SDS011;59997;53.300;-6.260;2024-03-08T12:46:36;26.58;;;9.40;;
71941;SDS011;59997;53.300;-6.260;2024-03-08T12:49:08;32.10;;;12.90;;
71941;SDS011;59997;53.300;-6.260;2024-03-08T12:51:35;33.05;;;13.63;;
71941;SDS011;59997;53.300;-6.260;2024-03-08T12:54:02;32.50;;;13.05;;
71941;SDS011;59997;53.300;-6.260;2024-03-08T12:56:34;30.43;;;11.73;;
71941;SDS011;59997;53.300;-6.260;2024-03-08T12:59:02;33.67;;;14.10;;
71941;SDS011;59997;53.300;-6.260;2024-03-08T13:01:29;33.90;;;12.65;;
71941;SDS011;59997;53.300;-6.260;2024-03-08T13:03:57;35.85;;;13.05;;
71941;SDS011;59997;53.300;-6.260;2024-03-08T13:06:23;37.67;;;15.10;;
71941;SDS011;59997;53.300;-6.260;2024-03-08T13:08:52;34.63;;;14.33;;
71941;SDS011;59997;53.300;-6.260;2024-03-08T13:11:18;32.70;;;12.98;;
71941;SDS011;59997;53.300;-6.260;2024-03-08T13:13:45;31.67;;;13.43;;
71941;SDS011;59997;53.300;-6.260;2024-03-08T13:16:11;32.80;;;13.60;;
71941;SDS011;59997;53.300;-6.260;2024-03-08T13:18:40;33.53;;;13.25;;
71941;SDS011;59997;53.300;-6.260;2024-03-08T13:21:07;30.03;;;12.70;;
71941;SDS011;59997;53.300;-6.260;2024-03-08T13:23:34;34.50;;;13.07;;
71941;SDS011;59997;53.300;-6.260;2024-03-08T13:26:10;32.72;;;12.45;;
71941;SDS011;59997;53.300;-6.260;2024-03-08T13:28:47;36.28;;;14.45;;
71941;SDS011;59997;53.300;-6.260;2024-03-08T13:31:21;29.35;;;11.77;;
71941;SDS011;59997;53.300;-6.260;2024-03-08T13:33:48;27.77;;;12.43;;
71941;SDS011;59997;53.300;-6.260;2024-03-08T13:36:13;35.20;;;13.48;;
71941;SDS011;59997;53.300;-6.260;2024-03-08T13:38:43;33.65;;;13.13;;
71941;SDS011;59997;53.300;-6.260;2024-03-08T13:41:10;32.23;;;12.53;;
71941;SDS011;59997;53.300;-6.260;2024-03-08T13:43:37;32.97;;;13.32;;
71941;SDS011;59997;53.300;-6.260;2024-03-08T13:46:03;31.15;;;12.27;;
71941;SDS011;59997;53.300;-6.260;2024-03-08T13:48:29;33.22;;;12.52;;
71941;SDS011;59997;53.300;-6.260;2024-03-08T13:50:56;32.30;;;12.77;;
71941;SDS011;59997;53.300;-6.260;2024-03-08T13:53:22;28.73;;;13.40;;
71941;SDS011;59997;53.300;-6.260;2024-03-08T13:55:49;29.98;;;11.80;;
71941;SDS011;59997;53.300;-6.260;2024-03-08T13:58:15;28.92;;;11.65;;
71941;SDS011;59997;53.300;-6.260;2024-03-08T14:00:41;29.77;;;13.13;;
71941;SDS011;59997;53.300;-6.260;2024-03-08T14:03:09;30.40;;;12.13;;
71941;SDS011;59997;53.300;-6.260;2024-03-08T14:05:38;30.55;;;12.60;;
71941;SDS011;59997;53.300;-6.260;2024-03-08T14:08:05;33.30;;;13.10;;
71941;SDS011;59997;53.300;-6.260;2024-03-08T14:10:32;30.80;;;12.68;;
71941;SDS011;59997;53.300;-6.260;2024-03-08T14:13:02;29.00;;;12.10;;
71941;SDS011;59997;53.300;-6.260;2024-03-08T14:15:30;28.40;;;12.55;;
71941;SDS011;59997;53.300;-6.260;2024-03-08T14:17:56;29.73;;;13.10;;
71941;SDS011;59997;53.300;-6.260;2024-03-08T14:20:22;34.65;;;12.85;;
71941;SDS011;59997;53.300;-6.260;2024-03-08T14:22:52;31.58;;;13.30;;
71941;SDS011;59997;53.300;-6.260;2024-03-08T14:25:21;32.27;;;12.47;;